Time;durP1;ratioP1;P1;durP2;ratioP2;P2;SDS_P1;SDS_P2;PMS_P1;PMS_P2;Temp;Humidity;BMP_temperature;BMP_pressure;BME280_temperature;BME280_humidity;BME280_pressure;Samples;Min_cycle;Max_cycle;Signal;HPM_P1;HPM_P2
2024/01/27 00:00:02;;;;;;;3.60;3.40;;;6.80;99.90;;;;;;5053989;28;20226;-75
2024/01/27 00:02:28;;;;;;;3.60;3.30;;;6.70;99.90;;;;;;5058992;28;20206;-75
2024/01/27 00:04:55;;;;;;;3.38;3.13;;;6.70;99.90;;;;;;5057645;28;20332;-75
2024/01/27 00:07:25;;;;;;;3.13;2.92;;;6.60;99.90;;;;;;5058757;28;20316;-75
2024/01/27 00:09:52;;;;;;;3.55;3.25;;;6.60;99.90;;;;;;5056938;28;20225;-76
2024/01/27 00:12:19;;;;;;;3.40;3.20;;;6.60;99.90;;;;;;5058625;28;20261;-75
2024/01/27 00:14:46;;;;;;;3.95;3.67;;;6.60;99.90;;;;;;5059309;28;20345;-75
2024/01/27 00:17:13;;;;;;;3.92;3.63;;;6.60;99.90;;;;;;5058831;28;20213;-76
2024/01/27 00:19:40;;;;;;;3.80;3.50;;;6.60;99.90;;;;;;5053250;28;20313;-75
2024/01/27 00:22:08;;;;;;;3.40;3.20;;;6.60;99.90;;;;;;5054443;28;20680;-74
2024/01/27 00:24:36;;;;;;;3.67;3.47;;;6.60;99.90;;;;;;5059477;28;20226;-76
2024/01/27 00:27:04;;;;;;;3.20;3.00;;;6.70;99.90;;;;;;5059047;28;20261;-76
2024/01/27 00:29:30;;;;;;;3.00;2.80;;;6.70;99.90;;;;;;5060878;28;21862;-75
2024/01/27 00:31:57;;;;;;;3.20;3.00;;;6.70;99.90;;;;;;5059350;28;20254;-76
2024/01/27 00:34:25;;;;;;;3.30;3.05;;;6.70;99.90;;;;;;5061961;28;20219;-75
2024/01/27 00:36:52;;;;;;;3.50;3.28;;;6.70;99.90;;;;;;5061834;28;20230;-75
2024/01/27 00:39:19;;;;;;;3.22;3.03;;;6.70;99.90;;;;;;5060348;28;20711;-74
2024/01/27 00:41:47;;;;;;;2.78;2.60;;;6.70;99.90;;;;;;5057472;28;20315;-75
2024/01/27 00:44:14;;;;;;;3.10;2.90;;;6.70;99.90;;;;;;5061141;28;20233;-75
2024/01/27 00:46:41;;;;;;;3.10;2.90;;;6.70;99.90;;;;;;5062179;28;20316;-75
2024/01/27 00:49:08;;;;;;;2.80;2.60;;;6.60;99.90;;;;;;5060831;28;20912;-75
2024/01/27 00:51:35;;;;;;;3.47;3.28;;;6.60;99.90;;;;;;5060341;28;20257;-76
2024/01/27 00:54:02;;;;;;;3.15;2.95;;;6.60;99.90;;;;;;5061647;28;20242;-75
2024/01/27 00:56:29;;;;;;;2.83;2.63;;;6.60;99.90;;;;;;5058083;28;20302;-77
2024/01/27 00:58:57;;;;;;;3.08;2.88;;;6.50;99.90;;;;;;5061647;28;20248;-75
2024/01/27 01:01:24;;;;;;;3.30;3.10;;;6.50;99.90;;;;;;5061263;28;20262;-75
2024/01/27 01:03:51;;;;;;;2.92;2.75;;;6.50;99.90;;;;;;5058014;28;20284;-75
2024/01/27 01:06:18;;;;;;;3.03;2.83;;;6.40;99.90;;;;;;5058855;28;20314;-75
2024/01/27 01:08:45;;;;;;;3.08;2.88;;;6.50;99.90;;;;;;5062585;28;20801;-75
2024/01/27 01:11:12;;;;;;;2.72;2.63;;;6.40;99.90;;;;;;5058377;28;20301;-76
2024/01/27 01:13:39;;;;;;;3.35;3.15;;;6.40;99.90;;;;;;5060455;28;20846;-74
2024/01/27 01:16:08;;;;;;;2.92;2.72;;;6.40;99.90;;;;;;5063743;28;21299;-76
2024/01/27 01:18:35;;;;;;;3.03;2.83;;;6.30;99.90;;;;;;5058717;28;20258;-75
2024/01/27 01:21:02;;;;;;;3.20;3.00;;;6.30;99.90;;;;;;5059941;28;20619;-76
2024/01/27 01:23:29;;;;;;;3.30;3.10;;;6.30;99.90;;;;;;5063837;28;20856;-74
2024/01/27 01:25:56;;;;;;;2.90;2.67;;;6.30;99.90;;;;;;5066387;28;20245;-74
2024/01/27 01:28:24;;;;;;;3.42;3.22;;;6.20;99.90;;;;;;5058342;28;20312;-74
2024/01/27 01:30:50;;;;;;;3.55;3.25;;;6.30;99.90;;;;;;5057692;28;20250;-74
2024/01/27 01:33:19;;;;;;;2.63;2.42;;;6.30;99.90;;;;;;5061858;28;20312;-76
2024/01/27 01:35:46;;;;;;;3.03;2.83;;;6.30;99.90;;;;;;5061163;28;20870;-75
2024/01/27 01:38:13;;;;;;;3.00;2.80;;;6.30;99.90;;;;;;5056585;28;20311;-75
2024/01/27 01:40:39;;;;;;;3.33;3.13;;;6.30;99.90;;;;;;5059465;28;20237;-74
2024/01/27 01:43:11;;;;;;;2.50;2.40;;;6.30;99.90;;;;;;5055677;28;20260;-75
2024/01/27 01:45:38;;;;;;;2.88;2.67;;;6.30;99.90;;;;;;5056506;28;20822;-75
2024/01/27 01:48:06;;;;;;;2.63;2.53;;;6.30;99.90;;;;;;5059735;28;21052;-76
2024/01/27 01:50:35;;;;;;;3.20;3.00;;;6.30;99.90;;;;;;5058577;28;20237;-74
2024/01/27 01:53:02;;;;;;;2.75;2.63;;;6.40;99.90;;;;;;5057535;28;20214;-75
2024/01/27 01:55:29;;;;;;;2.95;2.75;;;6.40;99.90;;;;;;5057202;28;20655;-74
2024/01/27 01:57:56;;;;;;;2.88;2.67;;;6.40;99.90;;;;;;5058380;28;20250;-75
2024/01/27 02:00:23;;;;;;;3.08;2.88;;;6.30;99.90;;;;;;5052931;28;20242;-75
2024/01/27 02:02:50;;;;;;;3.17;2.97;;;6.30;99.90;;;;;;5056807;28;20289;-75
2024/01/27 02:05:17;;;;;;;2.85;2.65;;;6.30;99.90;;;;;;5057170;28;20218;-75
2024/01/27 02:07:45;;;;;;;2.83;2.63;;;6.30;99.90;;;;;;5060739;28;20250;-75
2024/01/27 02:10:15;;;;;;;3.20;3.00;;;6.30;99.90;;;;;;5056401;28;20250;-75
2024/01/27 02:12:43;;;;;;;3.00;2.80;;;6.30;99.90;;;;;;5057555;28;20232;-75
2024/01/27 02:15:12;;;;;;;2.75;2.53;;;6.30;99.90;;;;;;5059797;28;20226;-75
2024/01/27 02:17:38;;;;;;;2.90;2.70;;;6.30;99.90;;;;;;5060435;28;20228;-74
2024/01/27 02:20:07;;;;;;;2.63;2.45;;;6.30;99.90;;;;;;5054835;28;20215;-75
2024/01/27 02:22:33;;;;;;;2.83;2.63;;;6.30;99.90;;;;;;5057280;28;20191;-75
2024/01/27 02:25:01;;;;;;;2.63;2.53;;;6.20;99.90;;;;;;5057126;28;20217;-75
2024/01/27 02:27:28;;;;;;;2.97;2.78;;;6.20;99.90;;;;;;5056382;28;20222;-76
2024/01/27 02:29:55;;;;;;;2.47;2.38;;;6.30;99.90;;;;;;5056202;28;21216;-74
2024/01/27 02:32:22;;;;;;;2.92;2.55;;;6.20;99.90;;;;;;5060067;28;20242;-74
2024/01/27 02:34:49;;;;;;;2.72;2.60;;;6.20;99.90;;;;;;5056017;28;20324;-75
2024/01/27 02:37:16;;;;;;;2.53;2.42;;;6.20;99.90;;;;;;5057844;28;20226;-76
2024/01/27 02:39:43;;;;;;;2.60;2.50;;;6.30;99.90;;;;;;5057628;28;20634;-76
2024/01/27 02:42:11;;;;;;;2.97;2.78;;;6.30;99.90;;;;;;5054436;28;20242;-76
2024/01/27 02:44:38;;;;;;;2.70;2.60;;;6.20;99.90;;;;;;5058638;28;20315;-75
2024/01/27 02:47:05;;;;;;;2.72;2.53;;;6.20;99.90;;;;;;5059776;28;20258;-75
2024/01/27 02:49:32;;;;;;;2.83;2.65;;;6.10;99.90;;;;;;5056834;28;20282;-74
2024/01/27 02:51:59;;;;;;;2.63;2.53;;;6.00;99.90;;;;;;5055872;28;20247;-75
2024/01/27 02:54:27;;;;;;;2.50;2.35;;;6.00;99.90;;;;;;5052446;28;20218;-75
2024/01/27 02:56:54;;;;;;;2.97;2.78;;;6.00;99.90;;;;;;5035778;28;20223;-76
2024/01/27 02:59:22;;;;;;;2.65;2.45;;;6.00;99.90;;;;;;5040110;28;20285;-75
2024/01/27 03:01:49;;;;;;;2.42;2.33;;;6.00;99.90;;;;;;5032519;28;20843;-75
2024/01/27 03:04:16;;;;;;;2.40;2.20;;;6.00;99.90;;;;;;5043186;28;20282;-76
2024/01/27 03:06:43;;;;;;;2.53;2.42;;;6.00;99.90;;;;;;5036988;28;20306;-75
2024/01/27 03:09:10;;;;;;;2.28;2.17;;;6.00;99.90;;;;;;5037848;28;20234;-75
2024/01/27 03:11:37;;;;;;;2.20;2.10;;;6.00;99.90;;;;;;5036607;28;20305;-75
2024/01/27 03:14:04;;;;;;;2.33;2.22;;;6.00;99.90;;;;;;5035772;28;20845;-74
2024/01/27 03:16:32;;;;;;;2.40;2.30;;;6.00;99.90;;;;;;5035658;28;20255;-75
2024/01/27 03:18:59;;;;;;;2.42;2.33;;;5.90;99.90;;;;;;5034334;28;20706;-75
2024/01/27 03:21:26;;;;;;;2.35;2.25;;;5.90;99.90;;;;;;5033546;28;20309;-75
2024/01/27 03:23:53;;;;;;;2.50;2.40;;;6.00;99.90;;;;;;5041631;28;20227;-74
2024/01/27 03:26:20;;;;;;;2.20;2.10;;;6.00;99.90;;;;;;5040601;28;20247;-74
2024/01/27 03:28:47;;;;;;;2.22;2.13;;;6.00;99.90;;;;;;5034683;28;20709;-75
2024/01/27 03:31:14;;;;;;;2.28;2.17;;;6.10;99.90;;;;;;5038597;28;20300;-75
2024/01/27 03:33:42;;;;;;;2.50;2.40;;;6.10;99.90;;;;;;5035195;28;20253;-76
2024/01/27 03:36:11;;;;;;;2.50;2.40;;;6.10;99.90;;;;;;5038559;28;20307;-76
2024/01/27 03:38:38;;;;;;;2.63;2.50;;;6.10;99.90;;;;;;5035874;28;20704;-75
2024/01/27 03:41:06;;;;;;;2.47;2.38;;;6.00;99.90;;;;;;5038965;28;20222;-75
2024/01/27 03:43:35;;;;;;;2.72;2.63;;;5.90;99.90;;;;;;5035143;28;20260;-75
2024/01/27 03:46:02;;;;;;;2.40;2.30;;;5.90;99.90;;;;;;5034707;28;20306;-75
2024/01/27 03:48:29;;;;;;;2.30;2.20;;;5.90;99.90;;;;;;5037797;28;20218;-75
2024/01/27 03:50:58;;;;;;;2.83;2.72;;;5.80;99.90;;;;;;5032900;28;20302;-75
2024/01/27 03:53:25;;;;;;;2.22;2.13;;;5.80;99.90;;;;;;5031803;28;20294;-75
2024/01/27 03:55:51;;;;;;;2.97;2.70;;;5.80;99.90;;;;;;5036928;28;20336;-75
2024/01/27 03:58:18;;;;;;;2.63;2.53;;;5.80;99.90;;;;;;5035496;28;20350;-75
2024/01/27 04:00:45;;;;;;;2.70;2.58;;;5.80;99.90;;;;;;5035665;28;20779;-75
2024/01/27 04:03:12;;;;;;;2.55;2.45;;;5.70;99.90;;;;;;5039168;28;20231;-75
2024/01/27 04:05:39;;;;;;;2.90;2.70;;;5.70;99.90;;;;;;5045856;28;20258;-74
2024/01/27 04:08:08;;;;;;;2.33;2.15;;;5.70;99.90;;;;;;5037254;28;21098;-75
2024/01/27 04:10:35;;;;;;;2.80;2.70;;;5.70;99.90;;;;;;5040534;28;20936;-76
2024/01/27 04:13:02;;;;;;;2.70;2.50;;;5.60;99.90;;;;;;5038292;28;20231;-75
2024/01/27 04:15:29;;;;;;;2.50;2.40;;;5.60;99.90;;;;;;5038976;28;21044;-74
2024/01/27 04:17:56;;;;;;;2.35;2.25;;;5.50;99.90;;;;;;5036342;28;20308;-74
2024/01/27 04:20:23;;;;;;;2.65;2.55;;;5.50;99.90;;;;;;5036776;28;20778;-75
2024/01/27 04:22:50;;;;;;;2.60;2.45;;;5.50;99.90;;;;;;5040812;28;20280;-75
2024/01/27 04:25:18;;;;;;;2.70;2.50;;;5.40;99.90;;;;;;5038469;28;20728;-75
2024/01/27 04:27:45;;;;;;;2.63;2.53;;;5.40;99.90;;;;;;5040849;28;20308;-74
2024/01/27 04:30:13;;;;;;;2.40;2.30;;;5.40;99.90;;;;;;5036840;28;20246;-76
2024/01/27 04:32:40;;;;;;;2.35;2.25;;;5.40;99.90;;;;;;5039991;28;20314;-76
2024/01/27 04:35:10;;;;;;;2.50;2.40;;;5.50;99.90;;;;;;5037225;28;20242;-74
2024/01/27 04:37:37;;;;;;;2.40;2.22;;;5.50;99.90;;;;;;5037734;28;20221;-75
2024/01/27 04:40:06;;;;;;;2.58;2.47;;;5.60;99.90;;;;;;5038457;28;20783;-75
2024/01/27 04:42:35;;;;;;;2.70;2.58;;;5.70;99.90;;;;;;5038721;28;20205;-75
2024/01/27 04:45:02;;;;;;;2.40;2.30;;;5.70;99.90;;;;;;5037194;28;20316;-75
2024/01/27 04:47:29;;;;;;;2.20;2.10;;;5.70;99.90;;;;;;5042239;28;20258;-75
2024/01/27 04:49:57;;;;;;;2.42;2.33;;;5.90;99.90;;;;;;5038006;28;20255;-75
2024/01/27 04:52:24;;;;;;;2.20;2.10;;;5.90;99.90;;;;;;5038476;28;20265;-75
2024/01/27 04:54:51;;;;;;;2.67;2.58;;;5.90;99.90;;;;;;5036771;28;20238;-74
2024/01/27 04:57:18;;;;;;;3.08;2.88;;;5.80;99.90;;;;;;5043118;28;20250;-74
2024/01/27 04:59:46;;;;;;;2.70;2.60;;;5.70;99.90;;;;;;5035153;28;20237;-75
2024/01/27 05:02:13;;;;;;;2.80;2.60;;;5.50;99.90;;;;;;5036879;28;20286;-75
2024/01/27 05:04:40;;;;;;;2.55;2.45;;;5.50;99.90;;;;;;5033747;28;20226;-75
2024/01/27 05:07:07;;;;;;;2.90;2.75;;;5.40;99.90;;;;;;5040108;28;20279;-75
2024/01/27 05:09:35;;;;;;;2.53;2.42;;;5.40;99.90;;;;;;5037465;28;20230;-75
2024/01/27 05:12:03;;;;;;;2.55;2.45;;;5.40;99.90;;;;;;5041758;28;20203;-75
2024/01/27 05:14:29;;;;;;;2.40;2.30;;;5.40;99.90;;;;;;5040626;28;20258;-76
2024/01/27 05:16:58;;;;;;;2.35;2.25;;;5.40;99.90;;;;;;5037845;28;20237;-75
2024/01/27 05:19:25;;;;;;;2.38;2.28;;;5.40;99.90;;;;;;5037651;28;20326;-73
2024/01/27 05:21:52;;;;;;;2.20;2.10;;;5.50;99.90;;;;;;5042147;28;20218;-74
2024/01/27 05:24:19;;;;;;;2.42;2.33;;;5.50;99.90;;;;;;5033698;28;20261;-76
2024/01/27 05:26:46;;;;;;;2.40;2.30;;;5.50;99.90;;;;;;5037739;28;20231;-74
2024/01/27 05:29:12;;;;;;;2.20;2.10;;;5.50;99.90;;;;;;5038770;28;20883;-75
2024/01/27 05:31:43;;;;;;;2.35;2.25;;;5.50;99.90;;;;;;5043202;28;20379;-74
2024/01/27 05:34:11;;;;;;;2.22;2.13;;;5.60;99.90;;;;;;5041205;28;20592;-75
2024/01/27 05:36:38;;;;;;;2.50;2.40;;;5.50;99.90;;;;;;5038511;28;20227;-75
2024/01/27 05:39:06;;;;;;;2.40;2.30;;;5.60;99.90;;;;;;5036447;28;20231;-75
2024/01/27 05:41:33;;;;;;;2.60;2.50;;;5.60;99.90;;;;;;5039398;28;20223;-75
2024/01/27 05:44:00;;;;;;;3.00;2.80;;;5.60;99.90;;;;;;5041667;28;20226;-75
2024/01/27 05:46:26;;;;;;;2.80;2.60;;;5.60;99.90;;;;;;5037473;28;20300;-74
2024/01/27 05:48:53;;;;;;;2.90;2.80;;;5.60;99.90;;;;;;5035856;28;20330;-74
2024/01/27 05:51:23;;;;;;;3.45;3.15;;;5.60;99.90;;;;;;5034963;28;20217;-75
2024/01/27 05:53:50;;;;;;;3.10;3.00;;;5.60;99.90;;;;;;5037643;28;20195;-75
2024/01/27 05:56:17;;;;;;;3.00;2.80;;;5.40;99.90;;;;;;5041588;28;20242;-74
2024/01/27 05:58:44;;;;;;;2.95;2.75;;;5.40;99.90;;;;;;5039699;28;20217;-76
2024/01/27 06:01:11;;;;;;;2.95;2.75;;;5.30;99.90;;;;;;5037764;28;20276;-75
2024/01/27 06:03:38;;;;;;;2.75;2.55;;;5.30;99.90;;;;;;5038840;28;20269;-75
2024/01/27 06:06:05;;;;;;;2.50;2.40;;;5.30;99.90;;;;;;5046619;28;20276;-75
2024/01/27 06:08:34;;;;;;;2.35;2.25;;;5.30;99.90;;;;;;5040557;28;20308;-75
2024/01/27 06:11:01;;;;;;;2.70;2.60;;;5.40;99.90;;;;;;5037119;28;20258;-75
2024/01/27 06:13:28;;;;;;;3.05;2.85;;;5.50;99.90;;;;;;5034462;28;20289;-76
2024/01/27 06:15:55;;;;;;;2.70;2.60;;;5.40;99.90;;;;;;5039654;28;20250;-75
2024/01/27 06:18:23;;;;;;;2.53;2.42;;;5.40;99.90;;;;;;5037270;28;20246;-77
2024/01/27 06:20:50;;;;;;;2.58;2.47;;;5.30;99.90;;;;;;5037460;28;20862;-75
2024/01/27 06:23:16;;;;;;;2.53;2.42;;;5.30;99.90;;;;;;5036499;28;20915;-74
2024/01/27 06:25:45;;;;;;;2.60;2.50;;;5.40;99.90;;;;;;5037963;28;20265;-75
2024/01/27 06:28:12;;;;;;;2.60;2.50;;;5.40;99.90;;;;;;5035628;28;20312;-75
2024/01/27 06:30:39;;;;;;;2.80;2.60;;;5.50;99.90;;;;;;5035674;28;20278;-76
2024/01/27 06:33:06;;;;;;;2.50;2.40;;;5.50;99.90;;;;;;5038399;28;20255;-75
2024/01/27 06:35:33;;;;;;;2.70;2.60;;;5.50;99.90;;;;;;5031626;28;20346;-75
2024/01/27 06:38:00;;;;;;;2.22;2.13;;;5.70;99.90;;;;;;5036925;28;20215;-74
2024/01/27 06:40:27;;;;;;;2.28;2.17;;;5.70;99.90;;;;;;5034494;28;20258;-74
2024/01/27 06:42:55;;;;;;;2.60;2.50;;;5.70;99.90;;;;;;5038284;28;20203;-75
2024/01/27 06:45:22;;;;;;;2.70;2.60;;;5.70;99.90;;;;;;5038547;28;21322;-75
2024/01/27 06:47:49;;;;;;;2.22;2.13;;;5.60;99.90;;;;;;5036956;28;20297;-75
2024/01/27 06:50:16;;;;;;;2.70;2.60;;;5.70;99.90;;;;;;5039624;28;20317;-76
2024/01/27 06:52:43;;;;;;;2.40;2.30;;;5.70;99.90;;;;;;5039743;28;20269;-75
2024/01/27 06:55:10;;;;;;;2.70;2.60;;;5.60;99.90;;;;;;5036663;28;20324;-75
2024/01/27 06:57:37;;;;;;;2.72;2.63;;;5.60;99.90;;;;;;5037322;28;20222;-75
2024/01/27 07:00:07;;;;;;;2.40;2.30;;;5.60;99.90;;;;;;5037785;28;20246;-76
2024/01/27 07:02:34;;;;;;;2.70;2.55;;;5.50;99.90;;;;;;5037046;28;20292;-75
2024/01/27 07:05:01;;;;;;;2.50;2.40;;;5.60;99.90;;;;;;5037160;28;20269;-75
2024/01/27 07:07:29;;;;;;;2.63;2.53;;;5.60;99.90;;;;;;5035974;28;20280;-75
2024/01/27 07:09:56;;;;;;;2.78;2.63;;;5.60;99.90;;;;;;5031068;28;20221;-75
2024/01/27 07:12:23;;;;;;;2.75;2.65;;;5.60;99.90;;;;;;5038631;28;20239;-75
2024/01/27 07:14:51;;;;;;;2.72;2.60;;;5.60;99.90;;;;;;5039674;28;20353;-76
2024/01/27 07:17:19;;;;;;;2.75;2.60;;;5.60;99.90;;;;;;5031270;28;20870;-75
2024/01/27 07:19:46;;;;;;;2.60;2.50;;;5.60;99.90;;;;;;5033329;28;20211;-76
2024/01/27 07:22:13;;;;;;;2.30;2.20;;;5.70;99.90;;;;;;5038924;28;20210;-75
2024/01/27 07:24:41;;;;;;;2.55;2.42;;;5.70;99.90;;;;;;5032326;28;20669;-76
2024/01/27 07:27:08;;;;;;;2.35;2.25;;;5.70;99.90;;;;;;5034932;28;20865;-76
2024/01/27 07:29:34;;;;;;;2.40;2.30;;;5.80;99.90;;;;;;5034128;28;20238;-76
2024/01/27 07:32:02;;;;;;;2.53;2.42;;;5.90;99.90;;;;;;5038504;28;20230;-75
2024/01/27 07:34:30;;;;;;;2.67;2.58;;;6.00;99.90;;;;;;5043135;28;20290;-75
2024/01/27 07:36:57;;;;;;;2.70;2.50;;;6.00;99.90;;;;;;5034647;28;20304;-75
2024/01/27 07:39:24;;;;;;;2.55;2.45;;;6.00;99.90;;;;;;5036276;28;20230;-76
2024/01/27 07:41:51;;;;;;;2.58;2.47;;;6.10;99.90;;;;;;5034962;28;20226;-74
2024/01/27 07:44:19;;;;;;;2.30;2.20;;;6.10;99.90;;;;;;5034558;28;20284;-75
2024/01/27 07:46:46;;;;;;;2.33;2.22;;;6.10;99.90;;;;;;5035197;28;20922;-74
2024/01/27 07:49:15;;;;;;;2.25;2.15;;;6.20;99.90;;;;;;5037919;28;20199;-75
2024/01/27 07:51:43;;;;;;;2.15;2.05;;;6.30;99.90;;;;;;5035477;28;20277;-75
2024/01/27 07:54:10;;;;;;;2.13;2.03;;;6.30;99.90;;;;;;5037271;28;20238;-76
2024/01/27 07:56:38;;;;;;;2.10;2.00;;;6.30;99.90;;;;;;5034824;28;20218;-75
2024/01/27 07:59:05;;;;;;;2.40;2.30;;;6.40;99.90;;;;;;5034097;28;20218;-76
2024/01/27 08:01:32;;;;;;;2.10;2.00;;;6.60;99.90;;;;;;5032928;28;20379;-75
2024/01/27 08:03:59;;;;;;;2.53;2.40;;;6.70;99.90;;;;;;5037430;28;20229;-75
2024/01/27 08:06:30;;;;;;;2.20;2.10;;;6.70;99.90;;;;;;5036947;28;20354;-74
2024/01/27 08:08:59;;;;;;;2.85;2.63;;;6.70;99.90;;;;;;5038793;28;20229;-75
2024/01/27 08:11:26;;;;;;;3.05;2.85;;;6.60;99.90;;;;;;5036436;28;20223;-75
2024/01/27 08:13:53;;;;;;;2.67;2.53;;;6.90;99.90;;;;;;5037962;28;20286;-75
2024/01/27 08:16:21;;;;;;;5.38;4.88;;;7.70;99.90;;;;;;5036896;28;20740;-75
2024/01/27 08:18:48;;;;;;;7.35;6.65;;;8.80;99.90;;;;;;5033285;28;20770;-75
2024/01/27 08:21:15;;;;;;;5.60;5.10;;;9.80;99.90;;;;;;5034174;28;20304;-75
2024/01/27 08:23:42;;;;;;;4.03;3.67;;;10.80;99.90;;;;;;5034010;28;20226;-75
2024/01/27 08:26:10;;;;;;;4.15;3.80;;;11.70;99.90;;;;;;5032515;28;20752;-75
2024/01/27 08:28:37;;;;;;;4.80;4.45;;;12.50;99.90;;;;;;5034407;28;20222;-75
2024/01/27 08:31:04;;;;;;;4.05;3.72;;;13.00;99.90;;;;;;5039902;28;20214;-76
2024/01/27 08:33:32;;;;;;;3.17;2.97;;;13.70;99.90;;;;;;5041631;28;20203;-74
2024/01/27 08:35:58;;;;;;;2.70;2.50;;;14.30;99.90;;;;;;5036172;28;20257;-75
2024/01/27 08:38:25;;;;;;;2.80;2.60;;;14.80;99.90;;;;;;5037840;28;20247;-74
2024/01/27 08:40:53;;;;;;;2.85;2.65;;;14.90;99.90;;;;;;5045439;28;20331;-74
2024/01/27 08:43:21;;;;;;;2.88;2.58;;;15.00;99.90;;;;;;5037909;28;20203;-75
2024/01/27 08:45:48;;;;;;;3.58;3.28;;;15.50;99.90;;;;;;5039152;28;20239;-77
2024/01/27 08:48:15;;;;;;;2.95;2.75;;;15.90;99.90;;;;;;5036714;28;20821;-76
2024/01/27 08:50:42;;;;;;;2.95;2.63;;;16.30;99.90;;;;;;5037764;28;20232;-78
2024/01/27 08:53:09;;;;;;;2.35;2.15;;;16.50;99.90;;;;;;5041349;28;20982;-76
2024/01/27 08:55:35;;;;;;;2.90;2.70;;;16.80;99.90;;;;;;5038591;28;20321;-77
2024/01/27 08:58:02;;;;;;;2.95;2.75;;;17.10;99.90;;;;;;5044753;28;20315;-75
2024/01/27 09:00:31;;;;;;;2.80;2.60;;;17.30;99.90;;;;;;5046819;28;20303;-78
2024/01/27 09:02:58;;;;;;;2.20;2.10;;;17.20;99.90;;;;;;5045962;28;20373;-78
2024/01/27 09:05:25;;;;;;;2.58;2.38;;;17.10;99.90;;;;;;5042110;28;20273;-78
2024/01/27 09:07:51;;;;;;;2.55;2.35;;;17.00;99.90;;;;;;5043032;28;20301;-78
2024/01/27 09:10:19;;;;;;;4.18;2.30;;;17.00;99.90;;;;;;5046035;28;20717;-78
2024/01/27 09:12:46;;;;;;;2.60;2.40;;;17.30;99.90;;;;;;5037613;28;20199;-78
2024/01/27 09:15:13;;;;;;;2.65;2.45;;;17.60;99.90;;;;;;5041970;28;20308;-79
2024/01/27 09:17:42;;;;;;;1.75;1.65;;;17.70;99.90;;;;;;5037124;28;20250;-78
2024/01/27 09:20:10;;;;;;;1.70;1.60;;;17.40;99.90;;;;;;5035517;28;20744;-78
2024/01/27 09:22:37;;;;;;;1.83;1.73;;;17.20;99.90;;;;;;5034666;28;20245;-77
2024/01/27 09:25:05;;;;;;;1.85;1.75;;;17.30;99.90;;;;;;5036798;28;20223;-77
2024/01/27 09:27:32;;;;;;;1.80;1.70;;;17.60;99.90;;;;;;5038595;28;21511;-77
2024/01/27 09:29:59;;;;;;;1.60;1.50;;;17.90;99.90;;;;;;5040492;28;20250;-77
2024/01/27 09:32:26;;;;;;;1.70;1.60;;;18.90;99.90;;;;;;5033326;28;21827;-78
2024/01/27 09:34:54;;;;;;;1.60;1.50;;;20.00;99.20;;;;;;5023499;28;20309;-78
2024/01/27 09:37:21;;;;;;;3.05;1.75;;;21.10;92.70;;;;;;5022826;28;20360;-78
2024/01/27 09:39:48;;;;;;;1.60;1.50;;;22.40;80.30;;;;;;5023496;28;20823;-76
2024/01/27 09:42:15;;;;;;;1.63;1.33;;;23.50;72.20;;;;;;5028752;28;20667;-77
2024/01/27 09:44:44;;;;;;;1.88;1.77;;;24.70;64.50;;;;;;5041849;28;20735;-78
2024/01/27 09:47:12;;;;;;;2.05;1.45;;;25.50;56.80;;;;;;5032246;28;20218;-76
2024/01/27 09:49:41;;;;;;;1.90;1.80;;;25.70;54.00;;;;;;5039916;28;20211;-76
2024/01/27 09:52:11;;;;;;;2.58;1.70;;;25.40;52.60;;;;;;5033424;28;20331;-77
2024/01/27 09:54:38;;;;;;;2.08;1.80;;;24.80;51.90;;;;;;5035543;28;20243;-76
2024/01/27 09:57:05;;;;;;;2.22;1.60;;;23.50;53.60;;;;;;5037722;28;20697;-77
2024/01/27 09:59:34;;;;;;;1.40;1.30;;;22.10;55.60;;;;;;5038702;28;20226;-79
2024/01/27 10:02:03;;;;;;;1.55;1.45;;;20.90;58.60;;;;;;5044609;28;20238;-77
2024/01/27 10:04:31;;;;;;;3.33;1.58;;;19.90;61.10;;;;;;5042679;28;20230;-76
2024/01/27 10:06:59;;;;;;;2.00;1.80;;;19.60;65.90;;;;;;5038412;28;20247;-77
2024/01/27 10:09:27;;;;;;;1.63;1.52;;;19.20;64.20;;;;;;5039245;28;20234;-78
2024/01/27 10:11:56;;;;;;;1.83;1.73;;;19.10;67.70;;;;;;5033547;28;20306;-77
2024/01/27 10:14:23;;;;;;;1.95;1.85;;;19.50;69.10;;;;;;5047911;28;20245;-79
2024/01/27 10:16:50;;;;;;;3.60;1.60;;;19.70;66.90;;;;;;5035132;28;20302;-77
2024/01/27 10:19:18;;;;;;;1.70;1.60;;;19.50;65.90;;;;;;5047500;28;20297;-76
2024/01/27 10:21:46;;;;;;;1.50;1.40;;;19.20;65.00;;;;;;5043007;28;20233;-76
2024/01/27 10:24:13;;;;;;;1.92;1.30;;;19.00;65.60;;;;;;5040140;28;20211;-77
2024/01/27 10:26:42;;;;;;;1.20;1.20;;;18.80;63.50;;;;;;5040187;28;20272;-77
2024/01/27 10:29:10;;;;;;;1.55;1.45;;;18.80;64.30;;;;;;5042536;28;20257;-79
2024/01/27 10:31:37;;;;;;;1.65;1.10;;;18.70;63.10;;;;;;5039593;28;20234;-77
2024/01/27 10:34:08;;;;;;;1.10;1.10;;;18.40;62.10;;;;;;5040383;28;20211;-77
2024/01/27 10:36:42;;;;;;;1.02;1.02;;;18.50;62.70;;;;;;5038978;28;20231;-78
2024/01/27 10:39:20;;;;;;;1.13;1.13;;;18.40;60.60;;;;;;5038217;28;20215;-77
2024/01/27 10:41:49;;;;;;;1.27;1.13;;;18.10;58.60;;;;;;5040765;28;20265;-76
2024/01/27 10:44:17;;;;;;;1.08;1.08;;;17.90;58.20;;;;;;5042443;28;20211;-78
2024/01/27 10:46:46;;;;;;;1.30;1.20;;;17.90;58.70;;;;;;5045649;28;20214;-78
2024/01/27 10:49:15;;;;;;;1.20;1.20;;;17.90;59.90;;;;;;5044322;28;20714;-78
2024/01/27 10:51:46;;;;;;;1.10;1.10;;;18.00;58.50;;;;;;5047788;28;20222;-78
2024/01/27 10:54:16;;;;;;;1.10;1.10;;;18.10;59.30;;;;;;5034341;28;20212;-76
2024/01/27 10:56:44;;;;;;;1.63;1.23;;;18.00;58.10;;;;;;5032198;28;20219;-80
2024/01/27 10:59:19;;;;;;;1.65;1.55;;;17.90;58.80;;;;;;5037718;28;20202;-79
2024/01/27 11:01:52;;;;;;;1.75;1.60;;;17.80;56.90;;;;;;5036203;28;20223;-78
2024/01/27 11:04:20;;;;;;;1.20;1.20;;;17.80;58.00;;;;;;5036131;28;20818;-76
2024/01/27 11:06:49;;;;;;;1.25;1.15;;;17.80;57.80;;;;;;5028510;28;20322;-77
2024/01/27 11:09:16;;;;;;;1.50;1.40;;;17.90;57.70;;;;;;5033964;28;20226;-76
2024/01/27 11:11:45;;;;;;;1.20;1.10;;;17.90;58.50;;;;;;5036781;28;20292;-76
2024/01/27 11:14:12;;;;;;;1.60;1.50;;;18.00;56.90;;;;;;5036601;28;20317;-77
2024/01/27 11:16:44;;;;;;;1.20;1.10;;;18.10;56.20;;;;;;5033019;28;20306;-78
2024/01/27 11:19:12;;;;;;;1.70;1.40;;;18.30;56.30;;;;;;5037890;28;20238;-78
2024/01/27 11:21:39;;;;;;;1.33;1.23;;;18.40;56.00;;;;;;5034012;28;20226;-78
2024/01/27 11:24:15;;;;;;;2.47;1.20;;;18.50;57.40;;;;;;5038425;28;20693;-78
2024/01/27 11:26:42;;;;;;;1.55;1.45;;;18.80;57.00;;;;;;5032633;28;20748;-76
2024/01/27 11:29:18;;;;;;;1.42;1.33;;;19.10;58.00;;;;;;5041422;28;20689;-76
2024/01/27 11:31:46;;;;;;;1.60;1.50;;;19.20;58.70;;;;;;5055522;28;20221;-79
2024/01/27 11:34:16;;;;;;;1.50;1.40;;;19.50;59.30;;;;;;5059941;28;20233;-79
2024/01/27 11:36:44;;;;;;;1.42;1.33;;;19.80;58.80;;;;;;5039605;28;20226;-78
2024/01/27 11:39:28;;;;;;;1.77;1.40;;;19.90;58.20;;;;;;5039783;28;20287;-76
2024/01/27 11:42:05;;;;;;;1.20;1.20;;;20.20;56.40;;;;;;5038521;28;21078;-77
2024/01/27 11:44:34;;;;;;;1.10;1.10;;;20.40;57.40;;;;;;5040095;28;20229;-77
2024/01/27 11:47:03;;;;;;;3.35;1.50;;;20.50;57.60;;;;;;5038992;28;20254;-79
2024/01/27 11:49:29;;;;;;;1.48;1.30;;;20.40;57.90;;;;;;5034012;28;20298;-78
2024/01/27 11:51:56;;;;;;;1.40;1.30;;;20.30;56.90;;;;;;5038152;28;20279;-77
2024/01/27 11:54:24;;;;;;;1.00;1.00;;;20.20;56.00;;;;;;5036691;28;20310;-78
2024/01/27 11:56:51;;;;;;;1.25;1.20;;;20.20;57.30;;;;;;5036522;28;20329;-77
2024/01/27 11:59:18;;;;;;;1.20;1.20;;;20.10;57.50;;;;;;5033492;28;20719;-78
2024/01/27 12:01:45;;;;;;;1.20;1.10;;;20.20;56.90;;;;;;5030908;28;20691;-78
2024/01/27 12:04:14;;;;;;;1.00;1.00;;;19.90;56.70;;;;;;5033170;28;20226;-78
2024/01/27 12:06:41;;;;;;;1.08;1.08;;;19.90;56.40;;;;;;5032252;28;20211;-77
2024/01/27 12:09:11;;;;;;;0.90;0.90;;;20.00;56.40;;;;;;5035298;28;20195;-78
2024/01/27 12:11:40;;;;;;;1.30;1.20;;;20.10;56.20;;;;;;5036145;28;20219;-75
2024/01/27 12:14:07;;;;;;;0.90;0.90;;;20.00;52.00;;;;;;5035577;28;20207;-77
2024/01/27 12:16:35;;;;;;;1.00;1.00;;;19.90;54.00;;;;;;5038063;28;20988;-78
2024/01/27 12:19:02;;;;;;;1.02;1.02;;;19.90;53.30;;;;;;5043049;28;20202;-77
2024/01/27 12:21:31;;;;;;;0.90;0.90;;;20.00;52.30;;;;;;5035511;28;20218;-78
2024/01/27 12:23:59;;;;;;;1.17;0.93;;;20.00;53.20;;;;;;5040064;28;20227;-78
2024/01/27 12:26:27;;;;;;;1.25;1.15;;;20.00;53.20;;;;;;5041115;28;21141;-78
2024/01/27 12:28:57;;;;;;;1.05;1.05;;;20.10;54.30;;;;;;5038705;28;20352;-78
2024/01/27 12:31:24;;;;;;;0.90;0.90;;;20.20;51.70;;;;;;5046430;28;20222;-76
2024/01/27 12:33:53;;;;;;;0.98;0.98;;;20.20;51.80;;;;;;5039020;28;20219;-78
2024/01/27 12:36:21;;;;;;;1.02;1.02;;;20.30;50.60;;;;;;5045705;28;20316;-76
2024/01/27 12:38:55;;;;;;;0.93;0.93;;;20.30;50.50;;;;;;5040987;28;20708;-77
2024/01/27 12:41:22;;;;;;;0.90;0.90;;;20.20;51.00;;;;;;5041803;28;20229;-76
2024/01/27 12:43:49;;;;;;;1.05;0.95;;;20.20;52.20;;;;;;5046444;28;20324;-80
2024/01/27 12:46:16;;;;;;;1.10;1.10;;;20.30;51.40;;;;;;5043373;28;20218;-76
2024/01/27 12:48:44;;;;;;;1.05;0.98;;;20.40;50.70;;;;;;5037786;28;20217;-78
2024/01/27 12:51:11;;;;;;;1.02;1.02;;;20.60;51.30;;;;;;5041170;28;20219;-79
2024/01/27 12:53:41;;;;;;;1.23;1.13;;;20.60;50.20;;;;;;5041499;28;20295;-78